Time;durP1;ratioP1;P1;durP2;ratioP2;P2;SDS_P1;SDS_P2;PMS_P1;PMS_P2;Temp;Humidity;BMP_temperature;BMP_pressure;BME280_temperature;BME280_humidity;BME280_pressure;Samples;Min_cycle;Max_cycle;Signal;HPM_P1;HPM_P2
2022/01/14 00:01:11;;;;;;;18.65;8.15;;;;;;;;;;4945709;28;20099;-78
2022/01/14 00:03:42;;;;;;;21.10;8.00;;;;;;;;;;4944895;28;20047;-78
2022/01/14 00:06:12;;;;;;;17.17;5.28;;;;;;;;;;4928788;29;20051;-77
2022/01/14 00:08:41;;;;;;;14.68;5.13;;;;;;;;;;4930019;28;20067;-78
2022/01/14 00:11:16;;;;;;;14.87;6.93;;;;;;;;;;4967498;28;20058;-78
2022/01/14 00:13:53;;;;;;;13.65;6.47;;;;;;;;;;4968287;28;20053;-78
2022/01/14 00:16:24;;;;;;;20.48;7.53;;;;;;;;;;4970000;28;20045;-78
2022/01/14 00:18:54;;;;;;;13.77;6.78;;;;;;;;;;4953451;28;20050;-78
2022/01/14 00:21:27;;;;;;;12.00;4.15;;;;;;;;;;4969294;28;20042;-78
2022/01/14 00:24:07;;;;;;;20.23;6.43;;;;;;;;;;4949272;28;20106;-78
2022/01/14 00:32:30;;;;;;;14.50;5.88;;;;;;;;;;4950302;28;20515;-78
2022/01/14 00:34:59;;;;;;;19.42;5.97;;;;;;;;;;4972063;28;20038;-79
2022/01/14 00:37:31;;;;;;;13.73;4.87;;;;;;;;;;4934982;28;20454;-78
2022/01/14 00:40:02;;;;;;;15.35;6.03;;;;;;;;;;4944937;28;20047;-78
2022/01/14 00:42:34;;;;;;;14.60;7.05;;;;;;;;;;4968627;28;20049;-78
2022/01/14 00:45:06;;;;;;;17.65;5.57;;;;;;;;;;4936015;28;20049;-78
2022/01/14 00:47:39;;;;;;;14.25;6.75;;;;;;;;;;4963371;28;20039;-78
2022/01/14 00:50:11;;;;;;;12.80;4.43;;;;;;;;;;4969482;28;20386;-78
2022/01/14 00:53:04;;;;;;;12.63;5.05;;;;;;;;;;4962917;28;20401;-78
2022/01/14 00:55:47;;;;;;;16.20;5.70;;;;;;;;;;4933222;29;20051;-78
2022/01/14 01:01:02;;;;;;;17.70;6.10;;;;;;;;;;4951053;28;20034;-78
2022/01/14 01:03:36;;;;;;;21.93;6.43;;;;;;;;;;4932048;28;20078;-78
2022/01/14 01:06:30;;;;;;;12.90;6.18;;;;;;;;;;4968579;28;20545;-78
2022/01/14 01:09:05;;;;;;;13.05;6.00;;;;;;;;;;4965186;28;20058;-78
2022/01/14 01:11:37;;;;;;;17.10;6.35;;;;;;;;;;4964045;28;20521;-78
2022/01/14 01:14:11;;;;;;;21.48;7.90;;;;;;;;;;4967974;28;20516;-78
2022/01/14 01:16:41;;;;;;;21.20;5.53;;;;;;;;;;4970288;28;20042;-78
2022/01/14 01:19:12;;;;;;;11.30;5.40;;;;;;;;;;4961603;28;20114;-79
2022/01/14 01:21:41;;;;;;;12.50;5.70;;;;;;;;;;4940257;28;20061;-78
2022/01/14 01:24:12;;;;;;;16.38;6.47;;;;;;;;;;4935514;28;20519;-79
2022/01/14 01:26:44;;;;;;;17.55;5.72;;;;;;;;;;4971843;28;20086;-78
2022/01/14 01:29:45;;;;;;;14.50;5.57;;;;;;;;;;4943019;28;20045;-78
2022/01/14 01:32:14;;;;;;;20.17;6.20;;;;;;;;;;4975326;28;20043;-78
2022/01/14 01:34:46;;;;;;;18.60;6.35;;;;;;;;;;4941286;28;20071;-78
2022/01/14 01:37:42;;;;;;;17.92;6.00;;;;;;;;;;4975764;28;20038;-78
2022/01/14 01:40:15;;;;;;;16.23;5.57;;;;;;;;;;4948759;28;20049;-78
2022/01/14 01:42:45;;;;;;;17.27;5.60;;;;;;;;;;4956358;28;20112;-78
2022/01/14 01:45:20;;;;;;;15.00;6.50;;;;;;;;;;4976727;28;20653;-78
2022/01/14 01:47:50;;;;;;;17.80;5.57;;;;;;;;;;4938420;28;20050;-78
2022/01/14 01:50:27;;;;;;;9.20;4.88;;;;;;;;;;4978926;28;20121;-78
2022/01/14 01:52:58;;;;;;;14.52;4.60;;;;;;;;;;4973744;28;20043;-78
2022/01/14 01:55:27;;;;;;;15.63;5.93;;;;;;;;;;4944601;28;20057;-78
2022/01/14 01:57:56;;;;;;;13.25;5.70;;;;;;;;;;4969443;28;20130;-78
2022/01/14 02:00:49;;;;;;;13.57;5.80;;;;;;;;;;4973569;28;20043;-78
2022/01/14 02:03:19;;;;;;;14.93;6.40;;;;;;;;;;4955020;28;20043;-78
2022/01/14 02:05:50;;;;;;;14.65;6.22;;;;;;;;;;4936795;28;20058;-78
2022/01/14 02:08:20;;;;;;;15.20;5.07;;;;;;;;;;4973783;28;20754;-78
2022/01/14 02:10:51;;;;;;;14.93;7.00;;;;;;;;;;4932398;28;20079;-78
2022/01/14 02:13:20;;;;;;;18.27;6.60;;;;;;;;;;4940867;29;20134;-78
2022/01/14 02:16:12;;;;;;;14.65;6.68;;;;;;;;;;4952408;28;20442;-78
2022/01/14 02:18:47;;;;;;;14.38;5.40;;;;;;;;;;4951769;28;20066;-79
2022/01/14 02:24:21;;;;;;;10.57;4.18;;;;;;;;;;4947866;28;20043;-78
2022/01/14 02:27:14;;;;;;;17.00;6.00;;;;;;;;;;4948841;28;20502;-78
2022/01/14 02:29:44;;;;;;;15.23;7.03;;;;;;;;;;4949484;28;20079;-78
2022/01/14 02:32:14;;;;;;;17.45;5.78;;;;;;;;;;4947039;28;20481;-78
2022/01/14 02:34:43;;;;;;;12.57;5.50;;;;;;;;;;4950154;28;20070;-78
2022/01/14 02:37:41;;;;;;;16.13;4.35;;;;;;;;;;4949608;28;20055;-78
2022/01/14 02:40:11;;;;;;;14.15;5.50;;;;;;;;;;4945985;28;20095;-78
2022/01/14 02:42:42;;;;;;;19.40;5.85;;;;;;;;;;4934811;28;20044;-78
2022/01/14 02:45:13;;;;;;;13.02;5.38;;;;;;;;;;4953438;28;20044;-78
2022/01/14 02:47:42;;;;;;;14.40;5.30;;;;;;;;;;4944266;28;20558;-78
2022/01/14 02:50:15;;;;;;;16.58;4.60;;;;;;;;;;4948726;28;20074;-78
2022/01/14 02:53:26;;;;;;;10.05;5.03;;;;;;;;;;4953118;28;20723;-78
2022/01/14 02:55:56;;;;;;;15.43;5.13;;;;;;;;;;4952125;28;20589;-78
2022/01/14 02:58:25;;;;;;;12.48;4.55;;;;;;;;;;4935082;28;20051;-79
2022/01/14 03:03:49;;;;;;;16.27;5.25;;;;;;;;;;4951012;28;20045;-78
2022/01/14 03:06:18;;;;;;;13.45;5.78;;;;;;;;;;4938101;28;20565;-78
2022/01/14 03:09:15;;;;;;;11.75;5.00;;;;;;;;;;4972716;28;20036;-78
2022/01/14 03:11:45;;;;;;;15.48;4.95;;;;;;;;;;4970935;28;20059;-78
2022/01/14 03:14:21;;;;;;;13.93;6.43;;;;;;;;;;4952877;28;20046;-78
2022/01/14 03:16:58;;;;;;;14.73;5.68;;;;;;;;;;4931825;28;20137;-78
2022/01/14 03:19:28;;;;;;;14.75;5.13;;;;;;;;;;4945973;28;20051;-78
2022/01/14 03:22:07;;;;;;;16.77;6.50;;;;;;;;;;4966500;28;20043;-78
2022/01/14 03:27:26;;;;;;;13.47;6.10;;;;;;;;;;4965915;28;20049;-77
2022/01/14 03:29:55;;;;;;;14.70;6.13;;;;;;;;;;4970725;28;20079;-78
2022/01/14 03:32:24;;;;;;;13.25;4.95;;;;;;;;;;4965778;28;20061;-78
2022/01/14 03:34:53;;;;;;;12.85;6.00;;;;;;;;;;4972704;28;20074;-78
2022/01/14 03:37:23;;;;;;;19.83;7.20;;;;;;;;;;4948446;28;20054;-77
2022/01/14 03:39:53;;;;;;;13.67;5.43;;;;;;;;;;4937966;28;20138;-78
2022/01/14 03:42:22;;;;;;;11.98;5.03;;;;;;;;;;4970111;28;20074;-78
2022/01/14 03:44:51;;;;;;;16.60;6.95;;;;;;;;;;4968611;28;20113;-77
2022/01/14 03:47:20;;;;;;;18.63;5.80;;;;;;;;;;4940791;28;20058;-77
2022/01/14 03:49:49;;;;;;;15.27;5.53;;;;;;;;;;4949274;28;20058;-78
2022/01/14 03:52:20;;;;;;;15.90;6.33;;;;;;;;;;4970889;28;20066;-78
2022/01/14 03:57:50;;;;;;;9.95;4.05;;;;;;;;;;4969849;28;20066;-78
2022/01/14 04:00:19;;;;;;;13.13;6.05;;;;;;;;;;4951994;28;20074;-78
2022/01/14 04:02:49;;;;;;;15.25;5.13;;;;;;;;;;4954779;28;20073;-78
2022/01/14 04:05:19;;;;;;;14.10;5.87;;;;;;;;;;4966273;28;20508;-78
2022/01/14 04:07:51;;;;;;;12.55;4.55;;;;;;;;;;4970824;28;20043;-78
2022/01/14 04:10:22;;;;;;;12.85;4.60;;;;;;;;;;4925893;28;20103;-78
2022/01/14 04:12:59;;;;;;;15.15;5.22;;;;;;;;;;4950658;28;20067;-78
2022/01/14 04:15:39;;;;;;;17.40;4.65;;;;;;;;;;4944441;29;20047;-78
2022/01/14 04:18:10;;;;;;;16.33;5.30;;;;;;;;;;4951219;28;20043;-78
2022/01/14 04:20:41;;;;;;;15.98;5.65;;;;;;;;;;4942120;29;20395;-78
2022/01/14 04:23:13;;;;;;;14.18;6.13;;;;;;;;;;4948690;28;20081;-78
2022/01/14 04:25:44;;;;;;;14.30;6.03;;;;;;;;;;4949076;28;20058;-77
2022/01/14 04:28:16;;;;;;;11.27;5.38;;;;;;;;;;4946104;28;20043;-78
2022/01/14 04:30:46;;;;;;;12.43;5.10;;;;;;;;;;4952619;28;20487;-78
2022/01/14 04:33:16;;;;;;;18.67;4.00;;;;;;;;;;4928920;28;20055;-78
2022/01/14 04:35:45;;;;;;;10.93;4.47;;;;;;;;;;4935890;29;20047;-78
2022/01/14 04:38:16;;;;;;;15.82;4.90;;;;;;;;;;4941917;28;20126;-77
2022/01/14 04:40:48;;;;;;;13.05;5.68;;;;;;;;;;4949865;28;20047;-78
2022/01/14 04:43:21;;;;;;;12.07;4.80;;;;;;;;;;4928553;28;20103;-78
2022/01/14 04:48:42;;;;;;;11.85;4.65;;;;;;;;;;4917367;28;20082;-78
2022/01/14 04:51:14;;;;;;;13.25;5.95;;;;;;;;;;4965198;28;20041;-78
2022/01/14 04:53:45;;;;;;;8.98;4.70;;;;;;;;;;4950757;28;20051;-78
2022/01/14 04:56:14;;;;;;;8.43;4.27;;;;;;;;;;4948723;28;20391;-78
2022/01/14 04:58:46;;;;;;;13.48;4.82;;;;;;;;;;4924571;29;20126;-78
2022/01/14 05:01:15;;;;;;;9.75;4.85;;;;;;;;;;4933760;28;20059;-77
2022/01/14 05:03:45;;;;;;;15.57;5.88;;;;;;;;;;4950168;28;20501;-79
2022/01/14 05:06:15;;;;;;;12.82;5.30;;;;;;;;;;4946157;28;20425;-78
2022/01/14 05:08:45;;;;;;;15.90;5.03;;;;;;;;;;4953611;28;20087;-79
2022/01/14 05:11:37;;;;;;;9.90;4.40;;;;;;;;;;4952978;28;20059;-79
2022/01/14 05:14:07;;;;;;;12.55;3.85;;;;;;;;;;4949573;28;20043;-78
2022/01/14 05:16:37;;;;;;;9.25;3.80;;;;;;;;;;4948681;28;20490;-78
2022/01/14 05:19:06;;;;;;;15.00;5.95;;;;;;;;;;4947734;28;20044;-78
2022/01/14 05:21:35;;;;;;;13.47;3.90;;;;;;;;;;4942547;28;20048;-79
2022/01/14 05:24:31;;;;;;;15.65;6.25;;;;;;;;;;4936030;28;20044;-78
2022/01/14 05:27:01;;;;;;;13.40;3.95;;;;;;;;;;4949151;28;20042;-78
2022/01/14 05:29:32;;;;;;;16.02;5.70;;;;;;;;;;4929344;28;20126;-78
2022/01/14 05:32:27;;;;;;;13.10;4.80;;;;;;;;;;4946364;28;20079;-79
2022/01/14 05:34:57;;;;;;;9.47;4.57;;;;;;;;;;4931105;28;20059;-78
2022/01/14 05:37:26;;;;;;;12.50;5.05;;;;;;;;;;4945259;28;20466;-78
2022/01/14 05:39:57;;;;;;;16.45;5.70;;;;;;;;;;4945750;28;20454;-77
2022/01/14 05:42:33;;;;;;;11.70;5.82;;;;;;;;;;4954324;28;20050;-80
2022/01/14 05:45:04;;;;;;;12.20;5.05;;;;;;;;;;4959770;28;20137;-78
2022/01/14 05:51:08;;;;;;;12.55;4.72;;;;;;;;;;5238669;23;20056;-79
2022/01/14 06:08:49;;;;;;;9.20;5.03;;;;;;;;;;4914342;29;20024;-80
2022/01/14 06:12:53;;;;;;;6.50;3.05;;;;;;;;;;4911646;29;20047;-77
2022/01/14 06:15:24;;;;;;;9.38;5.25;;;;;;;;;;4917110;29;20269;-79
2022/01/14 06:22:16;;;;;;;11.23;4.83;;;;;;;;;;4909004;29;20090;-81
2022/01/14 07:16:15;;;;;;;9.15;3.70;;;;;;;;;;5625917;23;20048;-79
2022/01/14 10:47:38;;;;;;;18.05;5.47;;;;;;;;;;5777436;23;20052;-76
2022/01/14 11:19:13;;;;;;;13.73;5.63;;;;;;;;;;6289821;22;20000;-82
2022/01/14 11:46:35;;;;;;;17.02;5.97;;;;;;;;;;6221616;22;20032;-82
2022/01/14 12:26:51;;;;;;;12.23;5.10;;;;;;;;;;6331603;22;20003;-83
2022/01/14 13:09:32;;;;;;;12.57;5.20;;;;;;;;;;6340081;22;20011;-82
2022/01/14 14:59:24;;;;;;;11.88;5.03;;;;;;;;;;6328545;22;20027;-75
2022/01/14 15:02:16;;;;;;;15.23;5.70;;;;;;;;;;6312496;22;20020;-77
2022/01/14 15:04:50;;;;;;;15.20;5.27;;;;;;;;;;6283316;22;20106;-83
2022/01/14 16:05:37;;;;;;;17.83;7.15;;;;;;;;;;6339922;22;20048;-81
2022/01/14 16:08:52;;;;;;;12.50;5.65;;;;;;;;;;6303412;22;20018;-81
2022/01/14 16:15:24;;;;;;;17.67;8.05;;;;;;;;;;6341071;22;20071;-79
2022/01/14 16:18:09;;;;;;;21.73;8.85;;;;;;;;;;6348209;22;20017;-80
2022/01/14 16:21:12;;;;;;;12.05;6.32;;;;;;;;;;6355835;22;20041;-80
2022/01/14 16:45:52;;;;;;;14.30;5.87;;;;;;;;;;6290334;22;20010;-78
2022/01/14 17:17:34;;;;;;;12.25;5.78;;;;;;;;;;6109162;23;20018;-77
2022/01/14 17:20:13;;;;;;;15.47;7.30;;;;;;;;;;6099304;23;20001;-83
2022/01/14 17:22:44;;;;;;;17.48;7.68;;;;;;;;;;6110665;23;20082;-79
2022/01/14 17:25:17;;;;;;;16.63;7.30;;;;;;;;;;6156513;23;20017;-78
2022/01/14 17:27:52;;;;;;;22.65;10.07;;;;;;;;;;6135292;23;20021;-80
2022/01/14 17:30:21;;;;;;;19.55;8.20;;;;;;;;;;6159758;23;20068;-79
2022/01/14 17:32:51;;;;;;;25.43;7.90;;;;;;;;;;6159874;23;20025;-79
2022/01/14 17:35:20;;;;;;;15.52;6.53;;;;;;;;;;6136764;23;20041;-81
2022/01/14 17:37:51;;;;;;;18.95;6.70;;;;;;;;;;6132747;23;20018;-78
2022/01/14 17:40:24;;;;;;;16.55;7.93;;;;;;;;;;6171131;23;20024;-79
2022/01/14 17:42:55;;;;;;;16.77;8.75;;;;;;;;;;6190718;23;20028;-80
2022/01/14 17:49:05;;;;;;;23.35;8.80;;;;;;;;;;6285722;22;20072;-78
2022/01/14 17:51:35;;;;;;;16.40;6.95;;;;;;;;;;6308642;22;20064;-78
2022/01/14 17:54:05;;;;;;;18.15;7.68;;;;;;;;;;6281459;22;20050;-77
2022/01/14 17:56:35;;;;;;;20.58;8.30;;;;;;;;;;6335323;22;20086;-77
2022/01/14 17:59:08;;;;;;;18.27;7.13;;;;;;;;;;6336912;22;20035;-77
2022/01/14 18:01:38;;;;;;;18.10;8.05;;;;;;;;;;6308127;22;20402;-78
2022/01/14 18:04:08;;;;;;;17.17;8.02;;;;;;;;;;6336930;22;20056;-77
2022/01/14 18:06:37;;;;;;;17.73;9.15;;;;;;;;;;6309701;22;20022;-77
2022/01/14 18:09:09;;;;;;;23.45;8.68;;;;;;;;;;6308929;22;20469;-79
2022/01/14 18:11:42;;;;;;;20.77;8.27;;;;;;;;;;6341636;22;20022;-78
2022/01/14 18:14:19;;;;;;;17.67;7.68;;;;;;;;;;6309629;22;20034;-77
2022/01/14 18:16:50;;;;;;;16.13;8.30;;;;;;;;;;6310754;22;20026;-77
2022/01/14 18:19:21;;;;;;;15.57;6.80;;;;;;;;;;6339927;22;20018;-78
2022/01/14 18:21:51;;;;;;;16.80;8.38;;;;;;;;;;6340382;22;20076;-76
2022/01/14 18:27:18;;;;;;;18.08;7.45;;;;;;;;;;6337557;22;20022;-76
2022/01/14 18:29:47;;;;;;;20.73;9.00;;;;;;;;;;6336105;22;20022;-76
2022/01/14 18:32:16;;;;;;;15.10;8.10;;;;;;;;;;6338607;22;20090;-76
2022/01/14 18:34:45;;;;;;;18.05;7.28;;;;;;;;;;6308381;22;20029;-76
2022/01/14 18:37:15;;;;;;;17.10;6.93;;;;;;;;;;6336480;22;20019;-76
2022/01/14 18:39:45;;;;;;;15.88;7.35;;;;;;;;;;6341912;22;20038;-76
2022/01/14 18:42:40;;;;;;;15.57;6.38;;;;;;;;;;6339206;22;20018;-77
2022/01/14 18:45:18;;;;;;;14.73;6.55;;;;;;;;;;6340090;22;20011;-76
2022/01/14 18:47:47;;;;;;;13.27;5.32;;;;;;;;;;6338110;22;20062;-76
2022/01/14 18:50:40;;;;;;;18.13;5.03;;;;;;;;;;6337571;22;20031;-77
2022/01/14 18:53:10;;;;;;;11.90;5.30;;;;;;;;;;6283207;22;20072;-77
2022/01/14 18:55:46;;;;;;;12.50;5.95;;;;;;;;;;6336400;22;20011;-77
2022/01/14 18:58:15;;;;;;;15.82;5.50;;;;;;;;;;6334937;22;20517;-76
2022/01/14 19:03:38;;;;;;;16.73;5.67;;;;;;;;;;6335049;22;20015;-77
2022/01/14 19:06:10;;;;;;;13.30;6.13;;;;;;;;;;6309090;22;20049;-76
2022/01/14 19:08:39;;;;;;;11.70;4.90;;;;;;;;;;6307033;22;20068;-79
2022/01/14 19:11:14;;;;;;;11.85;5.38;;;;;;;;;;6284173;22;20033;-77
2022/01/14 19:13:51;;;;;;;18.23;6.10;;;;;;;;;;6309367;22;20094;-77
2022/01/14 19:16:21;;;;;;;11.50;5.30;;;;;;;;;;6336882;22;20022;-77
2022/01/14 19:18:50;;;;;;;14.35;3.95;;;;;;;;;;6309164;22;20026;-77
2022/01/14 19:21:19;;;;;;;11.02;5.70;;;;;;;;;;6338791;22;20018;-77
2022/01/14 19:23:49;;;;;;;16.20;5.68;;;;;;;;;;6309508;22;20358;-78
2022/01/14 19:26:20;;;;;;;7.80;3.75;;;;;;;;;;6336678;22;20022;-78
2022/01/14 19:28:49;;;;;;;7.70;4.40;;;;;;;;;;6337043;22;20064;-78
2022/01/14 19:31:19;;;;;;;14.07;6.80;;;;;;;;;;6338567;22;20043;-80
2022/01/14 19:33:52;;;;;;;20.55;7.38;;;;;;;;;;6313498;22;20023;-79
2022/01/14 19:36:22;;;;;;;13.15;4.85;;;;;;;;;;6342124;22;20023;-80
2022/01/14 19:39:41;;;;;;;16.38;7.70;;;;;;;;;;6340555;22;20040;-78
2022/01/14 19:42:12;;;;;;;16.63;6.57;;;;;;;;;;6338312;22;20029;-79
2022/01/14 19:44:43;;;;;;;15.32;4.95;;;;;;;;;;6338824;22;20084;-79
2022/01/14 19:47:14;;;;;;;16.55;7.10;;;;;;;;;;6284042;22;20086;-78
2022/01/14 19:49:49;;;;;;;16.10;6.50;;;;;;;;;;6311215;22;20011;-79
2022/01/14 19:52:18;;;;;;;12.95;5.55;;;;;;;;;;6309190;22;20384;-78
2022/01/14 19:54:48;;;;;;;13.70;6.20;;;;;;;;;;6309725;22;20015;-78
2022/01/14 19:57:19;;;;;;;17.80;6.95;;;;;;;;;;6282669;22;20338;-79
2022/01/14 19:59:52;;;;;;;17.33;7.13;;;;;;;;;;6338119;22;20061;-78
2022/01/14 20:02:45;;;;;;;21.98;7.05;;;;;;;;;;6337980;22;20445;-79
2022/01/14 20:05:15;;;;;;;17.10;7.03;;;;;;;;;;6313148;22;20018;-79
2022/01/14 20:07:44;;;;;;;15.23;6.33;;;;;;;;;;6313583;22;20065;-79
2022/01/14 20:10:14;;;;;;;16.75;6.00;;;;;;;;;;6341969;22;20021;-78
2022/01/14 20:12:45;;;;;;;12.75;4.28;;;;;;;;;;6314140;22;20010;-81
2022/01/14 20:15:17;;;;;;;12.10;5.85;;;;;;;;;;6286007;22;20094;-79
2022/01/14 20:17:52;;;;;;;19.85;7.90;;;;;;;;;;6338210;22;20021;-79
2022/01/14 20:20:25;;;;;;;19.23;7.17;;;;;;;;;;6336940;22;20121;-78
2022/01/14 20:22:55;;;;;;;19.98;7.20;;;;;;;;;;6311816;22;20015;-78
2022/01/14 20:25:28;;;;;;;22.35;7.43;;;;;;;;;;6309460;22;20090;-79
2022/01/14 20:28:01;;;;;;;20.63;5.15;;;;;;;;;;6312666;22;20042;-79
2022/01/14 20:30:31;;;;;;;25.35;8.27;;;;;;;;;;6309692;22;20022;-79
2022/01/14 20:33:00;;;;;;;14.50;7.07;;;;;;;;;;6283718;22;20101;-78
2022/01/14 20:35:31;;;;;;;16.15;8.40;;;;;;;;;;6308851;22;20023;-80
2022/01/14 20:38:02;;;;;;;18.42;7.15;;;;;;;;;;6337204;22;20018;-79
2022/01/14 20:40:31;;;;;;;14.80;5.25;;;;;;;;;;6337126;22;20011;-79
2022/01/14 20:43:01;;;;;;;18.20;6.55;;;;;;;;;;6309736;22;20033;-78
2022/01/14 20:45:32;;;;;;;14.53;5.23;;;;;;;;;;6309343;22;20015;-79
2022/01/14 20:48:03;;;;;;;12.48;4.47;;;;;;;;;;6308571;22;20015;-78
2022/01/14 20:50:37;;;;;;;16.65;5.68;;;;;;;;;;6309819;22;20015;-79
2022/01/14 20:53:07;;;;;;;15.05;6.18;;;;;;;;;;6309727;22;20019;-79
2022/01/14 20:55:37;;;;;;;21.48;7.20;;;;;;;;;;6311609;22;20045;-80
2022/01/14 20:58:09;;;;;;;19.47;7.43;;;;;;;;;;6338719;22;20068;-79
2022/01/14 21:00:39;;;;;;;16.05;5.65;;;;;;;;;;6339216;22;20524;-78
2022/01/14 21:03:10;;;;;;;15.05;6.20;;;;;;;;;;6309202;22;20076;-78
2022/01/14 21:05:59;;;;;;;15.93;4.80;;;;;;;;;;6337251;22;20064;-79
2022/01/14 21:08:28;;;;;;;11.70;5.35;;;;;;;;;;6333402;22;20019;-78
2022/01/14 21:10:58;;;;;;;12.77;4.93;;;;;;;;;;6335863;22;20011;-78
2022/01/14 21:13:27;;;;;;;12.57;5.07;;;;;;;;;;6283154;22;20019;-78
2022/01/14 21:15:57;;;;;;;13.40;5.40;;;;;;;;;;6307343;22;20019;-78
2022/01/14 21:18:27;;;;;;;14.35;4.60;;;;;;;;;;6337375;22;20434;-78
2022/01/14 21:20:57;;;;;;;14.13;6.00;;;;;;;;;;6309345;22;20453;-77
2022/01/14 21:23:26;;;;;;;16.73;5.83;;;;;;;;;;6310319;22;20029;-79
2022/01/14 21:25:56;;;;;;;11.75;5.57;;;;;;;;;;6282171;22;20041;-78
2022/01/14 21:28:29;;;;;;;18.38;5.85;;;;;;;;;;6337447;22;20337;-79
2022/01/14 21:31:00;;;;;;;10.30;4.95;;;;;;;;;;6282623;22;20015;-79
2022/01/14 21:33:31;;;;;;;14.00;4.68;;;;;;;;;;6336167;22;20025;-78
2022/01/14 21:36:01;;;;;;;13.13;5.40;;;;;;;;;;6336191;22;20391;-79
2022/01/14 21:38:30;;;;;;;17.75;5.65;;;;;;;;;;6283641;22;20024;-79
2022/01/14 21:40:59;;;;;;;12.80;5.18;;;;;;;;;;6337628;22;20034;-79
2022/01/14 21:43:29;;;;;;;9.80;4.57;;;;;;;;;;6337376;22;20023;-78
2022/01/14 21:46:01;;;;;;;11.90;4.75;;;;;;;;;;6338621;22;20015;-78
2022/01/14 21:48:33;;;;;;;15.17;4.97;;;;;;;;;;6260845;22;20399;-78
2022/01/14 21:51:28;;;;;;;10.80;3.33;;;;;;;;;;6339614;22;20075;-79
2022/01/14 21:53:57;;;;;;;14.38;4.95;;;;;;;;;;6294140;22;20018;-79
2022/01/14 21:56:27;;;;;;;12.88;3.25;;;;;;;;;;6319186;22;20011;-79
2022/01/14 21:58:56;;;;;;;9.80;5.18;;;;;;;;;;6316455;22;20014;-79
2022/01/14 22:01:53;;;;;;;9.93;4.53;;;;;;;;;;6343473;22;20021;-79
2022/01/14 22:04:23;;;;;;;12.15;5.18;;;;;;;;;;6290458;22;20011;-79
2022/01/14 22:06:54;;;;;;;11.30;3.22;;;;;;;;;;6343801;22;20019;-79
2022/01/14 22:09:48;;;;;;;14.10;4.05;;;;;;;;;;6285842;22;20015;-78
2022/01/14 22:12:25;;;;;;;17.83;4.63;;;;;;;;;;6285919;22;20040;-79
2022/01/14 22:15:06;;;;;;;12.03;4.90;;;;;;;;;;6336671;22;20023;-79
2022/01/14 22:17:42;;;;;;;10.70;4.45;;;;;;;;;;6309168;22;20023;-78
2022/01/14 22:20:14;;;;;;;15.90;4.80;;;;;;;;;;6308489;22;20022;-78
2022/01/14 22:22:47;;;;;;;13.70;5.05;;;;;;;;;;6309657;22;20018;-78
2022/01/14 22:25:19;;;;;;;11.23;4.45;;;;;;;;;;6309157;22;20019;-78
2022/01/14 22:28:04;;;;;;;16.57;5.30;;;;;;;;;;6336970;22;20015;-78
2022/01/14 22:30:33;;;;;;;12.45;4.13;;;;;;;;;;6283540;22;20011;-78
2022/01/14 22:33:05;;;;;;;15.65;5.75;;;;;;;;;;6282391;22;20023;-78
2022/01/14 22:36:00;;;;;;;10.40;4.72;;;;;;;;;;6336330;22;20115;-79
2022/01/14 22:38:29;;;;;;;18.27;6.97;;;;;;;;;;6336827;22;20011;-78
2022/01/14 22:40:58;;;;;;;11.93;4.60;;;;;;;;;;6336769;22;20021;-78
2022/01/14 22:43:27;;;;;;;14.00;3.95;;;;;;;;;;6283323;22;20015;-78
2022/01/14 22:45:58;;;;;;;14.85;5.75;;;;;;;;;;6284020;22;20014;-78
2022/01/14 22:48:29;;;;;;;11.85;4.40;;;;;;;;;;6308710;22;20019;-78
2022/01/14 22:50:59;;;;;;;10.25;4.07;;;;;;;;;;6336361;22;20036;-78
2022/01/14 22:53:28;;;;;;;13.43;5.27;;;;;;;;;;6336229;22;20094;-78
2022/01/14 22:55:58;;;;;;;15.15;6.47;;;;;;;;;;6337111;22;20366;-78
2022/01/14 22:58:27;;;;;;;10.73;4.07;;;;;;;;;;6336984;22;20025;-78
2022/01/14 23:00:57;;;;;;;11.60;4.20;;;;;;;;;;6336512;22;20019;-78
2022/01/14 23:03:27;;;;;;;16.70;5.28;;;;;;;;;;6308386;22;20015;-78
2022/01/14 23:05:58;;;;;;;16.13;5.47;;;;;;;;;;6336107;22;20085;-78
2022/01/14 23:08:28;;;;;;;11.80;4.30;;;;;;;;;;6283351;22;20026;-78
2022/01/14 23:10:57;;;;;;;13.85;4.80;;;;;;;;;;6282418;22;20025;-78
2022/01/14 23:13:27;;;;;;;10.20;4.00;;;;;;;;;;6283126;22;20488;-78
2022/01/14 23:15:56;;;;;;;17.20;6.30;;;;;;;;;;6335384;22;20014;-78
2022/01/14 23:18:29;;;;;;;17.83;4.40;;;;;;;;;;6337759;22;20030;-78
2022/01/14 23:20:59;;;;;;;15.23;6.10;;;;;;;;;;6336321;22;20015;-79
2022/01/14 23:23:29;;;;;;;12.38;5.68;;;;;;;;;;6338562;22;20026;-79
2022/01/14 23:25:58;;;;;;;15.65;4.60;;;;;;;;;;6337586;22;20018;-78
2022/01/14 23:28:29;;;;;;;11.32;4.63;;;;;;;;;;6283965;22;20015;-79
2022/01/14 23:31:01;;;;;;;16.33;5.30;;;;;;;;;;6283232;22;20025;-79
2022/01/14 23:36:24;;;;;;;11.65;4.03;;;;;;;;;;6336981;22;20039;-78
2022/01/14 23:39:19;;;;;;;14.48;4.57;;;;;;;;;;6309276;22;20015;-78
2022/01/14 23:41:51;;;;;;;10.75;4.32;;;;;;;;;;6282944;22;20019;-78
2022/01/14 23:44:35;;;;;;;11.80;4.63;;;;;;;;;;6308426;22;20442;-78
2022/01/14 23:49:53;;;;;;;9.98;4.13;;;;;;;;;;6336062;22;20461;-78
2022/01/14 23:52:23;;;;;;;15.85;4.78;;;;;;;;;;6283414;22;20027;-78
2022/01/14 23:54:54;;;;;;;11.93;4.93;;;;;;;;;;6282306;22;20019;-77
2022/01/14 23:57:25;;;;;;;10.33;4.30;;;;;;;;;;6310688;22;20345;-78
2022/01/14 23:59:55;;;;;;;16.50;5.15;;;;;;;;;;6309738;22;20546;-77
